Time;durP1;ratioP1;P1;durP2;ratioP2;P2;SDS_P1;SDS_P2;PMS_P1;PMS_P2;Temp;Humidity;BMP_temperature;BMP_pressure;BME280_temperature;BME280_humidity;BME280_pressure;Samples;Min_cycle;Max_cycle;Signal;HPM_P1;HPM_P2
2022/10/03 00:02:10;;;;;;;;;;;7.00;99.90;;;;;;5091490;28;19931;-55
2022/10/03 00:04:50;;;;;;;;;;;7.00;99.90;;;;;;5103931;28;19923;-55
2022/10/03 00:07:20;;;;;;;;;;;7.00;99.90;;;;;;5089702;28;19931;-55
2022/10/03 00:09:47;;;;;;;;;;;6.90;99.90;;;;;;5108861;28;20424;-55
2022/10/03 00:12:33;;;;;;;;;;;6.90;99.90;;;;;;5108883;28;19931;-55
2022/10/03 00:15:04;;;;;;;;;;;6.90;99.90;;;;;;5117779;28;19924;-55
2022/10/03 00:17:44;;;;;;;;;;;6.90;99.90;;;;;;5089764;28;19925;-55
2022/10/03 00:20:17;;;;;;;;;;;6.90;99.90;;;;;;5108618;28;19938;-55
2022/10/03 00:22:52;;;;;;;;;;;6.90;99.90;;;;;;5108865;28;19924;-55
2022/10/03 00:25:22;;;;;;;;;;;6.80;99.90;;;;;;5103456;28;19938;-55
2022/10/03 00:28:03;;;;;;;;;;;6.80;99.90;;;;;;5125304;28;19931;-56
2022/10/03 00:30:43;;;;;;;;;;;6.80;99.90;;;;;;5104857;28;19924;-55
2022/10/03 00:33:20;;;;;;;;;;;6.80;99.90;;;;;;5092132;28;19924;-55
2022/10/03 00:35:48;;;;;;;;;;;6.80;99.90;;;;;;5102502;28;19935;-55
2022/10/03 00:38:27;;;;;;;;;;;6.80;99.90;;;;;;5094319;28;19924;-55
2022/10/03 00:41:14;;;;;;;;;;;6.70;99.90;;;;;;5112534;28;19923;-55
2022/10/03 00:43:49;;;;;;;;;;;6.70;99.90;;;;;;5112602;28;19935;-55
2022/10/03 00:46:16;;;;;;;;;;;6.70;99.90;;;;;;5091615;28;20399;-55
2022/10/03 00:48:46;;;;;;;;;;;6.70;99.90;;;;;;5102993;28;19928;-55
2022/10/03 00:51:21;;;;;;;;;;;6.70;99.90;;;;;;5112436;28;20371;-55
2022/10/03 00:53:54;;;;;;;;;;;6.60;99.90;;;;;;5112374;27;19924;-55
2022/10/03 00:56:35;;;;;;;;;;;6.60;99.90;;;;;;5132875;27;19924;-55
2022/10/03 00:59:14;;;;;;;;;;;6.60;99.90;;;;;;5115581;27;19923;-55
2022/10/03 01:01:46;;;;;;;;;;;6.60;99.90;;;;;;5096491;28;20536;-56
2022/10/03 01:04:13;;;;;;;;;;;6.60;99.90;;;;;;5094880;27;19927;-56
2022/10/03 01:06:59;;;;;;;;;;;6.60;99.90;;;;;;5129564;27;19925;-55
2022/10/03 01:09:45;;;;;;;;;;;6.60;99.90;;;;;;5111235;27;19928;-55
2022/10/03 01:12:22;;;;;;;;;;;6.60;99.90;;;;;;5108811;28;19924;-56
2022/10/03 01:15:08;;;;;;;;;;;6.60;99.90;;;;;;5117574;27;19934;-56
2022/10/03 01:17:35;;;;;;;;;;;6.60;99.90;;;;;;5108238;27;19931;-55
2022/10/03 01:20:21;;;;;;;;;;;6.50;99.90;;;;;;5108446;28;19928;-56
2022/10/03 01:23:03;;;;;;;;;;;6.50;99.90;;;;;;5108767;28;19924;-55
2022/10/03 01:25:31;;;;;;;;;;;6.50;99.90;;;;;;5122648;27;19923;-55
2022/10/03 01:30:55;;;;;;;;;;;6.40;99.90;;;;;;5090420;28;19932;-55
2022/10/03 01:33:26;;;;;;;;;;;6.40;99.90;;;;;;5090279;28;19924;-55
2022/10/03 01:35:54;;;;;;;;;;;6.40;99.90;;;;;;5126791;27;20310;-55
2022/10/03 01:38:41;;;;;;;;;;;6.40;99.90;;;;;;5123794;27;19923;-55
2022/10/03 01:41:12;;;;;;;;;;;6.30;99.90;;;;;;5111321;28;19931;-55
2022/10/03 01:43:45;;;;;;;;;;;6.30;99.90;;;;;;5110303;28;20375;-55
2022/10/03 01:46:25;;;;;;;;;;;6.30;99.90;;;;;;5111389;28;20306;-55
2022/10/03 01:49:10;;;;;;;;;;;6.30;99.90;;;;;;5082424;28;19924;-55
2022/10/03 01:52:00;;;;;;;;;;;6.30;99.90;;;;;;5093787;28;19935;-55
2022/10/03 01:54:28;;;;;;;;;;;6.30;99.90;;;;;;5096430;28;19932;-55
2022/10/03 01:56:59;;;;;;;;;;;6.20;99.90;;;;;;5090853;28;19928;-55
2022/10/03 01:59:40;;;;;;;;;;;6.20;99.90;;;;;;5091770;27;19935;-55
2022/10/03 02:02:19;;;;;;;;;;;6.30;99.90;;;;;;5090599;28;19931;-55
2022/10/03 02:04:51;;;;;;;;;;;6.20;99.90;;;;;;5107535;27;19930;-55
2022/10/03 02:07:22;;;;;;;;;;;6.20;99.90;;;;;;5131339;27;19923;-55
2022/10/03 02:09:55;;;;;;;;;;;6.20;99.90;;;;;;5112631;27;19923;-55
2022/10/03 02:12:29;;;;;;;;;;;6.20;99.90;;;;;;5131716;27;19927;-55
2022/10/03 02:15:13;;;;;;;;;;;6.20;99.90;;;;;;5129242;27;19923;-56
2022/10/03 02:17:53;;;;;;;;;;;6.10;99.90;;;;;;5092579;28;19924;-56
2022/10/03 02:20:31;;;;;;;;;;;6.10;99.90;;;;;;5110794;28;19927;-55
2022/10/03 02:22:59;;;;;;;;;;;6.10;99.90;;;;;;5110040;28;20524;-55
2022/10/03 02:25:35;;;;;;;;;;;6.10;99.90;;;;;;5110749;28;19931;-55
2022/10/03 02:28:12;;;;;;;;;;;6.00;99.90;;;;;;5092228;28;19931;-55
2022/10/03 02:30:46;;;;;;;;;;;6.00;99.90;;;;;;5093435;28;19935;-55
2022/10/03 02:33:32;;;;;;;;;;;6.00;99.90;;;;;;5092006;28;19924;-55
2022/10/03 02:36:06;;;;;;;;;;;6.00;99.90;;;;;;5112646;27;19924;-55
2022/10/03 02:38:40;;;;;;;;;;;5.90;99.90;;;;;;5116307;27;20299;-55
2022/10/03 02:41:17;;;;;;;;;;;5.90;99.90;;;;;;5122563;27;19923;-55
2022/10/03 02:44:11;;;;;;;;;;;5.90;99.90;;;;;;5113341;28;19928;-55
2022/10/03 02:46:57;;;;;;;;;;;5.80;99.90;;;;;;5113359;28;19924;-55
2022/10/03 02:49:44;;;;;;;;;;;5.80;99.90;;;;;;5113205;28;19934;-55
2022/10/03 02:52:26;;;;;;;;;;;5.80;99.90;;;;;;5113341;28;20414;-55
2022/10/03 02:55:05;;;;;;;;;;;5.80;99.90;;;;;;5112996;28;19924;-55
2022/10/03 02:57:36;;;;;;;;;;;5.80;99.90;;;;;;5113103;28;19924;-55
2022/10/03 03:00:03;;;;;;;;;;;5.70;99.90;;;;;;5113107;28;20413;-55
2022/10/03 03:02:46;;;;;;;;;;;5.70;99.90;;;;;;5112253;28;19923;-55
2022/10/03 03:05:23;;;;;;;;;;;5.80;99.90;;;;;;5107278;27;19924;-55
2022/10/03 03:08:09;;;;;;;;;;;5.80;99.90;;;;;;5133596;27;19924;-56
2022/10/03 03:10:47;;;;;;;;;;;5.80;99.90;;;;;;5132784;27;20390;-55
2022/10/03 03:13:24;;;;;;;;;;;5.80;99.90;;;;;;5122341;27;20279;-55
2022/10/03 03:16:07;;;;;;;;;;;5.80;99.90;;;;;;5113067;28;19924;-56
2022/10/03 03:18:37;;;;;;;;;;;5.80;99.90;;;;;;5113007;28;19924;-55
2022/10/03 03:21:33;;;;;;;;;;;5.80;99.90;;;;;;5112785;28;19935;-55
2022/10/03 03:24:19;;;;;;;;;;;5.80;99.90;;;;;;5022837;28;19937;-56
2022/10/03 03:27:05;;;;;;;;;;;5.80;99.90;;;;;;5112809;28;19923;-55
2022/10/03 03:29:36;;;;;;;;;;;5.80;99.90;;;;;;5112783;28;19931;-55
2022/10/03 03:32:18;;;;;;;;;;;5.80;99.90;;;;;;5112862;28;19923;-56
2022/10/03 03:34:55;;;;;;;;;;;5.80;99.90;;;;;;5120016;27;20398;-57
2022/10/03 03:37:31;;;;;;;;;;;5.80;99.90;;;;;;5133206;27;20292;-55
2022/10/03 03:40:10;;;;;;;;;;;5.80;99.90;;;;;;5133134;27;19924;-55
2022/10/03 03:42:41;;;;;;;;;;;5.80;99.90;;;;;;5133139;27;19946;-55
2022/10/03 03:45:43;;;;;;;;;;;5.80;99.90;;;;;;5133118;27;19923;-55
2022/10/03 03:48:29;;;;;;;;;;;5.80;99.90;;;;;;5029512;28;19968;-55
2022/10/03 03:51:10;;;;;;;;;;;5.80;99.90;;;;;;5125566;27;19939;-55
2022/10/03 03:53:43;;;;;;;;;;;5.80;99.90;;;;;;5114770;28;19923;-55
2022/10/03 03:56:27;;;;;;;;;;;5.80;99.90;;;;;;5132983;28;19931;-55
2022/10/03 03:58:57;;;;;;;;;;;5.80;99.90;;;;;;5132928;28;20472;-56
2022/10/03 04:01:27;;;;;;;;;;;5.80;99.90;;;;;;5114867;28;19931;-55
2022/10/03 04:04:14;;;;;;;;;;;5.80;99.90;;;;;;5114398;28;20414;-55
2022/10/03 04:07:08;;;;;;;;;;;5.90;99.90;;;;;;5116252;27;19923;-55
2022/10/03 04:09:44;;;;;;;;;;;5.80;99.90;;;;;;5098615;27;19934;-55
2022/10/03 04:12:12;;;;;;;;;;;5.90;99.90;;;;;;5137036;27;19934;-55
2022/10/03 04:14:58;;;;;;;;;;;5.90;99.90;;;;;;5137108;27;19993;-55
2022/10/03 04:20:14;;;;;;;;;;;5.80;99.90;;;;;;5136780;27;19923;-55
2022/10/03 04:22:48;;;;;;;;;;;5.80;99.90;;;;;;5136956;27;20427;-55
2022/10/03 04:25:23;;;;;;;;;;;5.80;99.90;;;;;;5136779;27;19924;-55
2022/10/03 04:28:10;;;;;;;;;;;5.80;99.90;;;;;;5136269;27;19923;-55
2022/10/03 04:30:44;;;;;;;;;;;5.80;99.90;;;;;;5136659;27;19931;-56
2022/10/03 04:33:18;;;;;;;;;;;5.80;99.90;;;;;;5136722;27;20298;-56
2022/10/03 04:36:05;;;;;;;;;;;5.80;99.90;;;;;;5137030;27;19923;-55
2022/10/03 04:38:51;;;;;;;;;;;5.80;99.90;;;;;;5136574;27;20401;-55
2022/10/03 04:41:26;;;;;;;;;;;5.80;99.90;;;;;;5115647;28;20374;-55
2022/10/03 04:43:59;;;;;;;;;;;5.80;99.90;;;;;;5115872;28;19923;-55
2022/10/03 04:46:26;;;;;;;;;;;5.80;99.90;;;;;;5115985;28;19924;-55
2022/10/03 04:48:56;;;;;;;;;;;5.80;99.90;;;;;;5107203;28;19923;-55
2022/10/03 04:51:24;;;;;;;;;;;5.90;99.90;;;;;;5094016;28;19928;-55
2022/10/03 04:54:01;;;;;;;;;;;5.90;99.90;;;;;;5112426;28;20493;-55
2022/10/03 04:56:37;;;;;;;;;;;5.90;99.90;;;;;;5111905;28;19935;-55
2022/10/03 04:59:07;;;;;;;;;;;5.90;99.90;;;;;;5130393;27;19934;-55
2022/10/03 05:01:38;;;;;;;;;;;6.00;99.90;;;;;;5130211;27;20398;-55
2022/10/03 05:04:22;;;;;;;;;;;5.90;99.90;;;;;;5093016;27;19935;-55
2022/10/03 05:07:08;;;;;;;;;;;6.00;99.90;;;;;;5129375;27;19934;-56
2022/10/03 05:09:53;;;;;;;;;;;6.00;99.90;;;;;;5073439;28;19925;-55
2022/10/03 05:12:36;;;;;;;;;;;6.00;99.90;;;;;;5095814;28;19924;-56
2022/10/03 05:15:13;;;;;;;;;;;6.00;99.90;;;;;;5112420;28;19924;-56
2022/10/03 05:17:41;;;;;;;;;;;6.00;99.90;;;;;;5108586;27;19932;-55
2022/10/03 05:20:14;;;;;;;;;;;6.00;99.90;;;;;;5091131;28;19931;-56
2022/10/03 05:22:44;;;;;;;;;;;5.90;99.90;;;;;;5095887;28;19923;-55
2022/10/03 05:25:37;;;;;;;;;;;5.90;99.90;;;;;;5090051;28;19927;-56
2022/10/03 05:28:25;;;;;;;;;;;5.90;99.90;;;;;;5116972;27;19923;-56
2022/10/03 05:31:12;;;;;;;;;;;5.90;99.90;;;;;;5110502;27;19927;-55
2022/10/03 05:33:43;;;;;;;;;;;5.90;99.90;;;;;;5083911;28;19925;-55
2022/10/03 05:36:27;;;;;;;;;;;6.00;99.90;;;;;;5128666;27;19946;-55
2022/10/03 05:39:13;;;;;;;;;;;6.00;99.90;;;;;;5097606;28;19931;-55
2022/10/03 05:41:49;;;;;;;;;;;6.00;99.90;;;;;;5110248;28;19930;-55
2022/10/03 05:44:42;;;;;;;;;;;6.10;99.90;;;;;;5089793;28;19924;-55
2022/10/03 05:47:43;;;;;;;;;;;6.10;99.90;;;;;;5093218;27;19931;-55
2022/10/03 05:50:18;;;;;;;;;;;6.10;99.90;;;;;;5101918;28;19924;-55
2022/10/03 05:52:45;;;;;;;;;;;6.10;99.90;;;;;;5111220;28;19924;-55
2022/10/03 05:55:12;;;;;;;;;;;6.10;99.90;;;;;;5093115;28;19924;-56
2022/10/03 05:57:43;;;;;;;;;;;6.20;99.90;;;;;;5081564;27;20435;-55
2022/10/03 06:00:11;;;;;;;;;;;6.20;99.90;;;;;;5131573;27;19924;-55
2022/10/03 06:02:52;;;;;;;;;;;6.20;99.90;;;;;;5123260;27;19931;-55
2022/10/03 06:05:24;;;;;;;;;;;6.20;99.90;;;;;;5098842;27;19931;-55
2022/10/03 06:07:51;;;;;;;;;;;6.30;99.90;;;;;;5113058;27;19946;-55
2022/10/03 06:10:37;;;;;;;;;;;6.30;99.90;;;;;;5112818;27;19923;-55
2022/10/03 06:13:08;;;;;;;;;;;6.30;99.90;;;;;;5120853;27;19928;-55
2022/10/03 06:15:53;;;;;;;;;;;6.40;99.90;;;;;;5110774;28;19947;-55
2022/10/03 06:18:21;;;;;;;;;;;6.40;99.90;;;;;;5110652;27;19924;-55
2022/10/03 06:20:58;;;;;;;;;;;6.40;99.90;;;;;;5090101;28;20307;-55
2022/10/03 06:23:46;;;;;;;;;;;6.40;99.90;;;;;;5116321;27;19923;-55
2022/10/03 06:26:27;;;;;;;;;;;6.40;99.90;;;;;;5131200;27;19927;-55
2022/10/03 06:28:55;;;;;;;;;;;6.50;99.90;;;;;;5111880;28;19930;-55
2022/10/03 06:31:28;;;;;;;;;;;6.40;99.90;;;;;;5120913;27;20307;-55
2022/10/03 06:34:18;;;;;;;;;;;5.50;99.90;;;;;;5107985;27;19924;-55
2022/10/03 06:36:59;;;;;;;;;;;6.50;99.90;;;;;;5100759;27;19923;-55
2022/10/03 06:39:30;;;;;;;;;;;6.50;99.90;;;;;;5110177;27;19924;-55
2022/10/03 06:42:11;;;;;;;;;;;6.50;99.90;;;;;;5109955;28;19928;-55
2022/10/03 06:44:41;;;;;;;;;;;6.50;99.90;;;;;;5110021;28;19924;-55
2022/10/03 06:47:25;;;;;;;;;;;6.50;99.90;;;;;;5110597;27;19923;-55
2022/10/03 06:50:12;;;;;;;;;;;6.50;99.90;;;;;;5080140;28;19931;-55
2022/10/03 06:52:39;;;;;;;;;;;6.60;99.90;;;;;;5096521;28;19931;-55
2022/10/03 06:55:26;;;;;;;;;;;6.60;99.90;;;;;;5109851;28;19935;-55
2022/10/03 06:58:03;;;;;;;;;;;6.60;99.90;;;;;;5108392;28;19924;-56
2022/10/03 07:00:31;;;;;;;;;;;6.60;99.90;;;;;;5091777;28;19924;-54
2022/10/03 07:03:01;;;;;;;;;;;6.60;99.90;;;;;;5115405;27;19927;-56
2022/10/03 07:05:34;;;;;;;;;;;6.60;99.90;;;;;;5080155;27;19924;-55
2022/10/03 07:08:18;;;;;;;;;;;6.70;99.90;;;;;;5126667;27;19935;-56
2022/10/03 07:10:55;;;;;;;;;;;6.70;99.90;;;;;;5127078;27;19934;-55
2022/10/03 07:13:41;;;;;;;;;;;6.70;99.90;;;;;;5116570;27;19923;-55
2022/10/03 07:16:09;;;;;;;;;;;6.80;99.90;;;;;;5108683;28;19931;-55
2022/10/03 07:18:54;;;;;;;;;;;6.80;99.90;;;;;;5096494;28;20287;-55
2022/10/03 07:21:35;;;;;;;;;;;6.80;99.90;;;;;;5070663;28;20573;-55
2022/10/03 07:24:06;;;;;;;;;;;6.80;99.90;;;;;;5106634;28;19924;-55
2022/10/03 07:26:42;;;;;;;;;;;6.80;99.90;;;;;;5109386;28;19938;-55
2022/10/03 07:29:28;;;;;;;;;;;6.80;99.90;;;;;;5108335;27;19930;-56
2022/10/03 07:32:14;;;;;;;;;;;8.30;99.90;;;;;;5129963;27;19923;-55
2022/10/03 07:35:00;;;;;;;;;;;6.90;99.90;;;;;;5113116;27;19923;-54
2022/10/03 07:40:39;;;;;;;;;;;7.00;99.90;;;;;;5129265;27;19930;-55
2022/10/03 07:43:14;;;;;;;;;;;7.10;99.90;;;;;;5119290;27;19924;-55
2022/10/03 07:46:03;;;;;;;;;;;7.20;99.90;;;;;;5109006;28;20268;-55
2022/10/03 07:48:33;;;;;;;;;;;7.30;99.90;;;;;;5088584;28;19924;-55
2022/10/03 07:51:17;;;;;;;;;;;7.40;99.90;;;;;;5106965;28;19931;-55
2022/10/03 07:54:03;;;;;;;;;;;7.50;99.90;;;;;;5107882;28;19930;-55
2022/10/03 07:56:42;;;;;;;;;;;7.60;99.90;;;;;;5089289;28;19928;-55
2022/10/03 07:59:09;;;;;;;;;;;7.70;99.90;;;;;;5091655;28;19924;-55
2022/10/03 08:01:54;;;;;;;;;;;7.90;99.90;;;;;;5107138;28;19928;-55
2022/10/03 08:04:37;;;;;;;;;;;8.00;99.90;;;;;;5087977;28;19928;-55
2022/10/03 08:07:04;;;;;;;;;;;8.10;99.90;;;;;;5091649;28;19928;-55
2022/10/03 08:09:41;;;;;;;;;;;8.30;99.90;;;;;;5099247;28;20006;-55
2022/10/03 08:12:27;;;;;;;;;;;8.50;99.90;;;;;;5094801;28;19932;-55
2022/10/03 08:14:57;;;;;;;;;;;8.70;99.90;;;;;;5107910;28;19924;-55
2022/10/03 08:17:43;;;;;;;;;;;8.80;99.90;;;;;;5107654;28;19931;-55
2022/10/03 08:20:16;;;;;;;;;;;9.00;99.90;;;;;;5098741;28;19924;-56
2022/10/03 08:22:59;;;;;;;;;;;9.10;99.90;;;;;;5100374;28;19927;-55
2022/10/03 08:25:29;;;;;;;;;;;9.20;99.90;;;;;;5100407;28;19928;-56
2022/10/03 08:28:03;;;;;;;;;;;9.40;99.90;;;;;;5113659;28;20340;-56
2022/10/03 08:30:51;;;;;;;;;;;9.60;99.90;;;;;;5128091;28;19931;-55
2022/10/03 08:33:32;;;;;;;;;;;9.70;99.90;;;;;;5085457;28;19924;-55
2022/10/03 08:36:06;;;;;;;;;;;10.00;99.90;;;;;;5086541;28;19924;-55
2022/10/03 08:38:47;;;;;;;;;;;10.20;99.90;;;;;;5107277;28;20367;-55
2022/10/03 08:41:38;;;;;;;;;;;10.30;99.90;;;;;;5090649;28;19924;-55
2022/10/03 08:44:05;;;;;;;;;;;10.40;99.90;;;;;;5060418;28;19923;-55
2022/10/03 08:46:39;;;;;;;;;;;10.50;99.90;;;;;;5108546;28;19923;-55
2022/10/03 08:49:06;;;;;;;;;;;10.60;99.90;;;;;;5108457;28;19923;-55
2022/10/03 08:51:57;;;;;;;;;;;10.60;99.90;;;;;;5089448;28;19931;-55
2022/10/03 08:54:44;;;;;;;;;;;10.70;99.90;;;;;;5092059;28;19924;-55
2022/10/03 08:57:11;;;;;;;;;;;10.90;99.90;;;;;;5093776;28;19923;-56
2022/10/03 09:00:01;;;;;;;;;;;11.00;99.90;;;;;;5107899;28;19928;-55
2022/10/03 09:02:33;;;;;;;;;;;11.20;99.90;;;;;;5077088;28;20382;-55
2022/10/03 09:05:03;;;;;;;;;;;11.30;99.90;;;;;;5112783;27;19947;-55
2022/10/03 09:07:43;;;;;;;;;;;11.50;99.90;;;;;;5111795;28;20295;-55
2022/10/03 09:10:23;;;;;;;;;;;11.60;99.90;;;;;;5111348;28;20379;-55
2022/10/03 09:13:09;;;;;;;;;;;11.80;99.90;;;;;;5102055;28;19923;-55
2022/10/03 09:15:52;;;;;;;;;;;11.90;99.90;;;;;;5111853;28;19928;-55
2022/10/03 09:18:21;;;;;;;;;;;12.00;99.90;;;;;;5118242;27;20401;-55
2022/10/03 09:20:52;;;;;;;;;;;12.10;99.90;;;;;;5110972;27;19928;-55
2022/10/03 09:23:38;;;;;;;;;;;12.20;99.90;;;;;;5101414;28;19932;-56
2022/10/03 09:26:29;;;;;;;;;;;12.20;99.90;;;;;;5088486;28;19930;-56
2022/10/03 09:28:56;;;;;;;;;;;12.30;99.90;;;;;;5079846;28;19924;-56
2022/10/03 09:31:35;;;;;;;;;;;12.40;99.90;;;;;;5110854;28;19924;-56
2022/10/03 09:34:06;;;;;;;;;;;12.40;99.90;;;;;;5127663;27;19996;-56
2022/10/03 09:36:49;;;;;;;;;;;12.50;99.90;;;;;;5100002;27;19924;-56
2022/10/03 09:39:43;;;;;;;;;;;12.60;99.90;;;;;;5108650;28;19931;-56
2022/10/03 09:42:24;;;;;;;;;;;12.70;99.90;;;;;;5108068;27;20291;-57
2022/10/03 09:44:55;;;;;;;;;;;12.80;99.90;;;;;;5132467;27;19923;-55
2022/10/03 09:47:41;;;;;;;;;;;12.90;99.90;;;;;;5130161;27;19931;-56
2022/10/03 09:50:24;;;;;;;;;;;13.10;99.90;;;;;;5108006;28;19935;-56
2022/10/03 09:53:07;;;;;;;;;;;13.20;99.90;;;;;;5097912;28;19924;-56
2022/10/03 09:55:53;;;;;;;;;;;13.30;99.90;;;;;;5111423;28;19924;-56
2022/10/03 09:58:36;;;;;;;;;;;13.30;99.90;;;;;;5109921;28;19924;-56
2022/10/03 10:01:22;;;;;;;;;;;13.40;99.90;;;;;;5111720;28;19923;-56
2022/10/03 10:04:09;;;;;;;;;;;13.50;99.90;;;;;;5110704;28;19924;-56
2022/10/03 10:06:36;;;;;;;;;;;13.60;99.90;;;;;;5114045;27;19923;-56
2022/10/03 10:09:16;;;;;;;;;;;13.60;99.90;;;;;;5127024;27;19942;-56
2022/10/03 10:12:02;;;;;;;;;;;13.70;99.90;;;;;;5098257;28;19923;-56
2022/10/03 10:14:36;;;;;;;;;;;13.70;99.90;;;;;;5090496;28;20323;-55
2022/10/03 10:17:18;;;;;;;;;;;13.80;99.90;;;;;;5090514;28;19947;-56
2022/10/03 10:19:50;;;;;;;;;;;13.80;99.90;;;;;;5090094;28;20256;-56
2022/10/03 10:22:21;;;;;;;;;;;13.80;99.90;;;;;;5111501;27;19931;-56
2022/10/03 10:24:54;;;;;;;;;;;13.90;99.90;;;;;;5129703;27;19931;-56
2022/10/03 10:27:22;;;;;;;;;;;13.90;99.90;;;;;;5120160;27;19928;-56
2022/10/03 10:29:59;;;;;;;;;;;14.00;99.90;;;;;;5105899;28;19934;-55
2022/10/03 10:32:56;;;;;;;;;;;14.10;99.90;;;;;;5113656;27;20317;-55
2022/10/03 10:35:32;;;;;;;;;;;14.20;99.90;;;;;;5092228;27;19943;-56
2022/10/03 10:38:18;;;;;;;;;;;14.40;99.90;;;;;;5106205;27;19931;-56
2022/10/03 10:41:04;;;;;;;;;;;14.60;99.90;;;;;;5106821;28;19924;-55
2022/10/03 10:43:43;;;;;;;;;;;14.80;99.90;;;;;;5110114;28;19924;-56
2022/10/03 10:46:26;;;;;;;;;;;15.00;99.90;;;;;;5106231;28;19928;-56
2022/10/03 10:48:56;;;;;;;;;;;15.20;99.90;;;;;;5105098;28;19924;-56
2022/10/03 10:51:48;;;;;;;;;;;15.40;99.90;;;;;;5108135;28;19924;-56
2022/10/03 10:54:32;;;;;;;;;;;15.50;99.90;;;;;;5091698;28;19930;-56
2022/10/03 10:57:06;;;;;;;;;;;15.50;99.90;;;;;;5106402;28;19954;-56
2022/10/03 10:59:52;;;;;;;;;;;15.60;99.90;;;;;;5105247;28;20288;-56
2022/10/03 11:02:38;;;;;;;;;;;15.60;99.90;;;;;;5109552;28;19924;-56
2022/10/03 11:05:24;;;;;;;;;;;15.60;99.90;;;;;;5109290;27;19931;-56
2022/10/03 11:07:55;;;;;;;;;;;15.60;99.90;;;;;;5106179;27;19924;-55
2022/10/03 11:10:51;;;;;;;;;;;15.70;99.90;;;;;;5127506;27;19931;-56
2022/10/03 11:13:19;;;;;;;;;;;15.80;99.90;;;;;;5106642;28;19924;-57
2022/10/03 11:15:58;;;;;;;;;;;15.90;99.90;;;;;;5106447;28;19924;-56
2022/10/03 11:18:44;;;;;;;;;;;16.00;99.90;;;;;;5109635;27;19927;-56
2022/10/03 11:21:32;;;;;;;;;;;16.10;99.90;;;;;;5103060;28;20311;-57
2022/10/03 11:24:05;;;;;;;;;;;16.20;99.90;;;;;;5099280;28;20398;-56
2022/10/03 11:26:51;;;;;;;;;;;16.30;99.90;;;;;;5107146;28;19931;-56
2022/10/03 11:29:39;;;;;;;;;;;16.30;99.90;;;;;;5124539;27;19927;-56
2022/10/03 11:32:19;;;;;;;;;;;16.30;99.90;;;;;;5106342;28;20315;-56
2022/10/03 11:35:05;;;;;;;;;;;16.20;99.90;;;;;;5105855;27;19924;-56
2022/10/03 11:37:39;;;;;;;;;;;16.20;99.90;;;;;;5101313;28;19931;-56
2022/10/03 11:40:20;;;;;;;;;;;16.30;99.90;;;;;;5089981;28;20307;-57
2022/10/03 11:42:59;;;;;;;;;;;16.40;99.90;;;;;;5091444;28;20306;-56
2022/10/03 11:45:36;;;;;;;;;;;16.50;99.90;;;;;;5108301;28;19950;-56
2022/10/03 11:48:07;;;;;;;;;;;16.70;99.90;;;;;;5106853;28;19946;-56
2022/10/03 11:50:54;;;;;;;;;;;17.10;99.90;;;;;;5087809;28;19935;-56
2022/10/03 11:53:39;;;;;;;;;;;17.20;99.90;;;;;;5090216;28;19928;-56
2022/10/03 11:56:11;;;;;;;;;;;17.50;99.90;;;;;;5078937;28;19930;-57
2022/10/03 11:58:52;;;;;;;;;;;17.80;99.90;;;;;;5121136;28;19927;-57
2022/10/03 12:01:27;;;;;;;;;;;17.90;99.90;;;;;;5088604;28;19928;-57
2022/10/03 12:04:14;;;;;;;;;;;18.00;99.90;;;;;;5103813;28;20551;-57
2022/10/03 12:09:44;;;;;;;;;;;18.30;99.90;;;;;;5101180;28;19924;-57
2022/10/03 12:12:20;;;;;;;;;;;18.50;99.90;;;;;;5089443;28;19928;-57
2022/10/03 12:14:49;;;;;;;;;;;18.70;99.90;;;;;;5106050;28;19924;-57
2022/10/03 12:17:37;;;;;;;;;;;19.10;99.90;;;;;;5108956;28;19931;-57
2022/10/03 12:20:26;;;;;;;;;;;19.10;99.90;;;;;;5107152;28;19940;-57
2022/10/03 12:23:17;;;;;;;;;;;19.30;99.90;;;;;;5108021;28;19930;-58
2022/10/03 12:25:44;;;;;;;;;;;19.70;99.90;;;;;;5088518;28;19924;-57
2022/10/03 12:28:19;;;;;;;;;;;20.00;99.90;;;;;;5098477;28;19935;-58
2022/10/03 12:30:47;;;;;;;;;;;20.30;99.90;;;;;;5111931;28;19924;-58
2022/10/03 12:33:39;;;;;;;;;;;20.70;99.90;;;;;;5111642;28;19924;-58
2022/10/03 12:36:41;;;;;;;;;;;20.90;99.90;;;;;;5099181;28;19924;-57
2022/10/03 12:39:24;;;;;;;;;;;21.00;99.60;;;;;;5041150;28;19933;-58
2022/10/03 12:42:10;;;;;;;;;;;20.90;98.70;;;;;;5115441;27;19927;-57
2022/10/03 12:44:40;;;;;;;;;;;20.60;99.10;;;;;;5093681;28;19923;-57
2022/10/03 12:47:09;;;;;;;;;;;20.20;99.40;;;;;;5112420;28;19924;-57
2022/10/03 12:49:37;;;;;;;;;;;19.80;99.10;;;;;;5112422;28;20397;-57
2022/10/03 12:52:24;;;;;;;;;;;19.50;99.90;;;;;;5085846;28;19931;-57
2022/10/03 12:54:58;;;;;;;;;;;19.30;99.90;;;;;;5091937;28;20175;-57
2022/10/03 12:57:25;;;;;;;;;;;19.10;99.90;;;;;;5093197;28;19931;-57
2022/10/03 13:00:00;;;;;;;;;;;18.80;99.90;;;;;;5093162;28;19931;-57
2022/10/03 13:02:39;;;;;;;;;;;18.60;99.90;;;;;;5108910;28;19939;-57
2022/10/03 13:05:17;;;;;;;;;;;18.50;99.90;;;;;;5103879;27;19924;-57
2022/10/03 13:08:01;;;;;;;;;;;18.30;99.90;;;;;;5106976;27;19924;-57
2022/10/03 13:10:41;;;;;;;;;;;18.20;99.90;;;;;;5119555;27;19924;-57
2022/10/03 13:13:12;;;;;;;;;;;18.20;99.90;;;;;;5111745;28;19931;-57
2022/10/03 13:15:40;;;;;;;;;;;18.10;99.90;;;;;;5105448;28;19931;-57
2022/10/03 13:18:08;;;;;;;;;;;17.90;99.90;;;;;;5105775;28;19924;-57
2022/10/03 13:20:41;;;;;;;;;;;17.90;99.90;;;;;;5090269;28;20268;-57
2022/10/03 13:23:27;;;;;;;;;;;17.80;99.90;;;;;;5102335;28;20307;-58
2022/10/03 13:25:58;;;;;;;;;;;17.60;99.90;;;;;;5098981;28;19931;-57
2022/10/03 13:28:34;;;;;;;;;;;17.40;99.90;;;;;;5102668;27;19924;-57
2022/10/03 13:31:05;;;;;;;;;;;17.20;99.90;;;;;;5073002;28;19928;-55
2022/10/03 13:33:35;;;;;;;;;;;17.20;99.90;;;;;;5117703;27;19927;-55
2022/10/03 13:36:13;;;;;;;;;;;17.20;99.90;;;;;;5108942;27;19947;-55
2022/10/03 13:38:59;;;;;;;;;;;17.20;99.90;;;;;;5104506;28;19934;-55
2022/10/03 13:41:46;;;;;;;;;;;17.30;99.90;;;;;;5111672;28;19924;-55
2022/10/03 13:44:22;;;;;;;;;;;17.40;99.90;;;;;;5111286;28;20294;-55
2022/10/03 13:46:52;;;;;;;;;;;17.50;99.90;;;;;;5111372;28;19927;-55
2022/10/03 13:49:33;;;;;;;;;;;17.70;99.90;;;;;;5110980;28;19924;-55
2022/10/03 13:52:06;;;;;;;;;;;17.80;99.90;;;;;;5091443;28;20295;-55
2022/10/03 13:54:49;;;;;;;;;;;17.80;99.90;;;;;;5109527;28;19923;-56
2022/10/03 13:57:22;;;;;;;;;;;17.80;99.90;;;;;;5111228;28;19930;-56
2022/10/03 13:59:55;;;;;;;;;;;17.90;99.90;;;;;;5105565;28;20294;-56
2022/10/03 14:02:35;;;;;;;;;;;17.80;99.90;;;;;;5108753;27;19924;-56
2022/10/03 14:05:06;;;;;;;;;;;17.80;99.90;;;;;;5108444;27;19923;-55
2022/10/03 14:07:33;;;;;;;;;;;17.60;99.90;;;;;;5084405;27;19935;-56
2022/10/03 14:10:06;;;;;;;;;;;17.50;99.90;;;;;;5111977;27;19925;-56
2022/10/03 14:12:37;;;;;;;;;;;17.40;99.90;;;;;;5113382;27;19930;-56
2022/10/03 14:15:21;;;;;;;;;;;17.40;99.90;;;;;;5124910;27;19942;-56
2022/10/03 14:17:57;;;;;;;;;;;17.30;99.90;;;;;;5097509;27;20287;-56
2022/10/03 14:20:35;;;;;;;;;;;17.10;99.90;;;;;;5104535;28;19923;-56
2022/10/03 14:23:21;;;;;;;;;;;17.10;99.90;;;;;;5104056;28;20290;-56
2022/10/03 14:25:52;;;;;;;;;;;17.00;99.90;;;;;;5095586;28;19931;-56
2022/10/03 14:28:38;;;;;;;;;;;16.90;99.90;;;;;;5096626;28;19924;-56
2022/10/03 14:31:06;;;;;;;;;;;16.90;99.90;;;;;;5089406;28;20372;-56
2022/10/03 14:33:46;;;;;;;;;;;16.90;99.90;;;;;;5101482;28;20298;-55
2022/10/03 14:36:32;;;;;;;;;;;16.90;99.90;;;;;;5103483;28;19924;-56
2022/10/03 14:39:06;;;;;;;;;;;16.80;99.90;;;;;;5115139;27;20426;-56
2022/10/03 14:41:39;;;;;;;;;;;16.80;99.90;;;;;;5097142;28;19931;-56
2022/10/03 14:44:13;;;;;;;;;;;16.80;99.90;;;;;;5107923;27;19924;-56
2022/10/03 14:46:45;;;;;;;;;;;16.70;99.90;;;;;;5103560;28;19931;-56
2022/10/03 14:49:26;;;;;;;;;;;16.70;99.90;;;;;;5095730;28;19928;-56
2022/10/03 14:52:25;;;;;;;;;;;16.70;99.90;;;;;;5107009;28;19923;-56
2022/10/03 14:54:56;;;;;;;;;;;16.70;99.90;;;;;;5104687;28;20397;-56
2022/10/03 14:57:43;;;;;;;;;;;16.70;99.90;;;;;;5095228;27;19924;-56
2022/10/03 15:00:44;;;;;;;;;;;16.70;99.90;;;;;;5106249;28;19923;-56
2022/10/03 15:03:19;;;;;;;;;;;16.80;99.90;;;;;;5106151;28;20383;-56
2022/10/03 15:05:55;;;;;;;;;;;16.70;99.90;;;;;;5102684;27;19934;-57
2022/10/03 15:08:24;;;;;;;;;;;16.80;99.90;;;;;;5106355;28;19928;-56
2022/10/03 15:10:53;;;;;;;;;;;16.70;99.90;;;;;;5101335;28;20323;-56
2022/10/03 15:13:21;;;;;;;;;;;16.80;99.90;;;;;;5105879;28;19927;-56
2022/10/03 15:15:51;;;;;;;;;;;16.80;99.90;;;;;;5099139;28;19930;-56
2022/10/03 15:18:20;;;;;;;;;;;16.80;99.90;;;;;;5087458;28;19932;-56
2022/10/03 15:20:50;;;;;;;;;;;16.80;99.90;;;;;;5107594;28;19924;-56
2022/10/03 15:23:19;;;;;;;;;;;16.80;99.90;;;;;;5098488;28;19924;-56
2022/10/03 15:25:51;;;;;;;;;;;16.80;99.90;;;;;;5103248;28;19931;-56
2022/10/03 15:28:21;;;;;;;;;;;16.90;99.90;;;;;;5084631;28;19924;-56
2022/10/03 15:30:50;;;;;;;;;;;16.90;99.90;;;;;;5106181;28;19931;-56
2022/10/03 15:33:34;;;;;;;;;;;16.90;99.90;;;;;;5108659;28;20286;-56
2022/10/03 15:36:21;;;;;;;;;;;17.00;99.90;;;;;;5116487;27;19931;-56
2022/10/03 15:38:51;;;;;;;;;;;17.00;99.90;;;;;;5101910;28;19928;-55